Time;durP1;ratioP1;P1;durP2;ratioP2;P2;SDS_P1;SDS_P2;PMS_P1;PMS_P2;Temp;Humidity;BMP_temperature;BMP_pressure;BME280_temperature;BME280_humidity;BME280_pressure;Samples;Min_cycle;Max_cycle;Signal;HPM_P1;HPM_P2
2023/03/14 05:30:34;;;;;;;13.05;2.38;;;10.20;68.80;;;;;;5901103;23;20475;-75
2023/03/14 05:32:59;;;;;;;9.23;1.85;;;10.20;68.70;;;;;;4973302;28;20117;-75
2023/03/14 05:35:25;;;;;;;7.22;2.17;;;10.10;68.80;;;;;;4958435;28;20039;-75
2023/03/14 05:37:50;;;;;;;7.65;1.70;;;10.10;68.60;;;;;;4973581;28;20034;-75
2023/03/14 05:40:16;;;;;;;8.02;1.65;;;10.00;68.10;;;;;;4952907;28;20038;-75
2023/03/14 05:42:42;;;;;;;15.85;2.47;;;10.00;68.80;;;;;;4964383;28;20102;-76
2023/03/14 05:45:07;;;;;;;8.43;1.90;;;10.00;68.20;;;;;;4956438;28;20042;-77
2023/03/14 05:47:33;;;;;;;10.63;1.65;;;10.10;68.20;;;;;;4971290;28;20121;-77
2023/03/14 05:49:59;;;;;;;10.43;1.80;;;10.20;68.10;;;;;;4949073;28;20520;-78
2023/03/14 05:52:24;;;;;;;6.18;2.10;;;10.20;67.70;;;;;;4963991;28;20028;-76
2023/03/14 05:54:50;;;;;;;10.73;1.80;;;10.00;67.20;;;;;;4956050;28;20024;-77
2023/03/14 05:57:16;;;;;;;9.45;1.90;;;10.00;67.30;;;;;;4968023;28;20031;-77
2023/03/14 05:59:41;;;;;;;7.25;2.35;;;10.00;67.30;;;;;;4939037;28;20047;-76
2023/03/14 06:02:07;;;;;;;8.52;1.83;;;10.00;67.20;;;;;;4964880;28;20046;-77
2023/03/14 06:04:33;;;;;;;4.88;1.85;;;10.00;67.40;;;;;;4970670;28;20929;-76
2023/03/14 06:06:58;;;;;;;9.05;1.70;;;10.00;67.50;;;;;;4964944;28;20031;-76
2023/03/14 06:09:24;;;;;;;5.95;1.67;;;10.00;67.00;;;;;;4972500;28;20047;-75
2023/03/14 06:11:50;;;;;;;10.07;1.77;;;10.00;66.90;;;;;;4971943;28;20023;-75
2023/03/14 06:14:16;;;;;;;10.85;1.92;;;10.00;67.30;;;;;;4967868;28;20031;-76
2023/03/14 06:16:41;;;;;;;7.60;2.25;;;10.00;66.80;;;;;;4956771;28;20033;-76
2023/03/14 06:19:07;;;;;;;12.38;2.55;;;10.00;66.80;;;;;;4958014;28;20498;-74
2023/03/14 06:21:33;;;;;;;5.63;1.50;;;9.80;66.40;;;;;;4961734;28;20505;-75
2023/03/14 06:23:58;;;;;;;6.18;1.48;;;9.80;66.60;;;;;;4966512;28;20437;-75
2023/03/14 06:26:24;;;;;;;12.32;2.22;;;9.80;66.70;;;;;;4967069;28;20022;-75
2023/03/14 06:28:50;;;;;;;10.50;1.52;;;9.80;66.80;;;;;;4978180;28;20038;-76
2023/03/14 06:31:17;;;;;;;13.63;2.35;;;9.90;66.80;;;;;;4965692;28;20074;-75
2023/03/14 06:33:42;;;;;;;6.78;1.60;;;10.00;66.70;;;;;;4939996;28;20027;-75
2023/03/14 06:36:08;;;;;;;11.15;2.03;;;10.00;66.60;;;;;;4956553;28;20047;-76
2023/03/14 06:38:34;;;;;;;6.97;1.95;;;10.00;66.40;;;;;;4976146;28;20062;-76
2023/03/14 06:41:07;;;;;;;13.35;1.77;;;10.00;66.40;;;;;;4961366;28;20671;-76
2023/03/14 06:43:33;;;;;;;7.15;2.28;;;10.10;66.50;;;;;;4955609;28;20043;-75
2023/03/14 06:45:59;;;;;;;10.05;1.65;;;10.10;66.20;;;;;;4941580;28;20034;-76
2023/03/14 06:48:26;;;;;;;4.93;2.17;;;10.10;66.50;;;;;;4966899;28;20039;-76
2023/03/14 06:50:52;;;;;;;12.80;2.13;;;10.20;66.70;;;;;;4952868;28;20109;-76
2023/03/14 06:53:17;;;;;;;6.97;1.73;;;10.00;67.00;;;;;;4939535;28;20035;-75
2023/03/14 06:55:45;;;;;;;6.43;1.90;;;9.90;67.20;;;;;;4954746;28;20031;-75
2023/03/14 06:58:11;;;;;;;9.10;1.70;;;10.00;66.80;;;;;;4949264;28;20031;-76
2023/03/14 07:00:36;;;;;;;13.05;3.15;;;10.00;67.10;;;;;;4955446;28;20150;-76
2023/03/14 07:03:02;;;;;;;8.18;2.08;;;10.00;66.90;;;;;;4958256;28;20079;-76
2023/03/14 07:05:28;;;;;;;3.35;1.58;;;10.10;66.70;;;;;;4957195;28;20082;-76
2023/03/14 07:07:54;;;;;;;4.63;1.67;;;10.10;66.40;;;;;;4948993;28;20045;-76
2023/03/14 07:10:20;;;;;;;10.13;1.63;;;10.00;66.60;;;;;;4942990;28;20035;-76
2023/03/14 07:12:45;;;;;;;7.10;1.80;;;10.00;66.60;;;;;;4965958;28;20031;-75
2023/03/14 07:15:11;;;;;;;5.88;2.00;;;10.10;66.80;;;;;;4955156;28;20071;-76
2023/03/14 07:17:37;;;;;;;10.65;1.85;;;10.20;66.40;;;;;;4947482;28;20033;-76
2023/03/14 07:20:07;;;;;;;8.15;1.70;;;10.10;66.60;;;;;;4943770;28;20093;-75
2023/03/14 07:22:32;;;;;;;8.25;1.58;;;10.10;66.50;;;;;;4958743;28;20077;-76
2023/03/14 07:24:58;;;;;;;12.98;2.00;;;10.20;66.60;;;;;;4954853;28;20039;-75
2023/03/14 07:27:24;;;;;;;4.75;1.48;;;10.20;66.80;;;;;;4947451;28;20038;-75
2023/03/14 07:29:50;;;;;;;9.18;1.85;;;10.20;67.20;;;;;;4955155;28;20023;-75
2023/03/14 07:32:16;;;;;;;5.15;1.55;;;10.20;67.40;;;;;;4960189;28;20058;-76
2023/03/14 07:34:42;;;;;;;4.43;1.70;;;10.30;67.80;;;;;;4960376;28;20015;-75
2023/03/14 07:37:08;;;;;;;4.18;1.50;;;10.40;67.70;;;;;;4956213;28;20045;-76
2023/03/14 07:39:34;;;;;;;4.03;1.30;;;10.40;67.70;;;;;;4960869;28;20110;-75
2023/03/14 07:42:00;;;;;;;8.82;1.85;;;10.60;68.20;;;;;;4957880;28;20034;-75
2023/03/14 07:44:26;;;;;;;4.97;1.80;;;13.00;61.30;;;;;;4954969;28;20031;-76
2023/03/14 07:46:51;;;;;;;9.35;1.70;;;15.00;56.30;;;;;;4957201;28;20058;-76
2023/03/14 07:49:17;;;;;;;3.60;1.10;;;16.20;51.50;;;;;;4963165;28;20067;-76
2023/03/14 07:51:43;;;;;;;3.60;1.20;;;17.40;48.40;;;;;;4956062;28;20054;-76
2023/03/14 07:54:10;;;;;;;6.30;1.20;;;18.40;46.40;;;;;;4938907;28;20524;-76
2023/03/14 07:56:35;;;;;;;8.55;1.40;;;19.20;44.80;;;;;;4952996;28;20031;-73
2023/03/14 07:59:01;;;;;;;6.60;1.20;;;19.50;42.50;;;;;;4948365;28;20042;-76
2023/03/14 08:01:27;;;;;;;7.05;1.63;;;19.30;43.20;;;;;;4954225;28;20103;-76
2023/03/14 08:03:53;;;;;;;11.23;1.80;;;18.50;42.60;;;;;;4961316;28;20034;-76
2023/03/14 08:06:18;;;;;;;7.13;1.40;;;18.60;43.30;;;;;;4955420;28;20028;-76
2023/03/14 08:08:44;;;;;;;6.68;1.55;;;18.90;43.30;;;;;;4959444;28;20446;-76
2023/03/14 08:11:09;;;;;;;5.95;1.65;;;19.30;41.50;;;;;;4957616;28;20039;-76
2023/03/14 08:13:36;;;;;;;6.63;1.55;;;19.70;42.10;;;;;;4957508;28;20049;-76
2023/03/14 08:16:02;;;;;;;5.05;1.50;;;19.80;42.10;;;;;;4954053;28;20552;-76
2023/03/14 08:18:28;;;;;;;3.42;0.90;;;20.00;40.80;;;;;;4948236;28;20038;-76
2023/03/14 08:20:53;;;;;;;9.80;1.55;;;19.70;41.30;;;;;;4937005;28;20039;-76
2023/03/14 08:23:19;;;;;;;4.20;1.27;;;18.60;42.70;;;;;;4956498;28;20257;-76
2023/03/14 08:25:45;;;;;;;6.18;1.83;;;17.80;44.40;;;;;;4954262;28;20035;-76
2023/03/14 08:28:10;;;;;;;8.50;1.42;;;18.70;43.50;;;;;;4964564;28;20125;-76
2023/03/14 08:30:36;;;;;;;4.00;1.35;;;19.10;41.60;;;;;;4954315;28;20057;-76
2023/03/14 08:33:02;;;;;;;4.85;1.50;;;19.60;40.80;;;;;;4957774;28;20117;-76
2023/03/14 08:35:28;;;;;;;4.97;1.58;;;19.80;39.50;;;;;;4950893;28;20509;-76
2023/03/14 08:37:53;;;;;;;5.93;1.30;;;20.40;39.30;;;;;;4961181;28;20114;-76
2023/03/14 08:40:19;;;;;;;8.20;1.13;;;20.60;38.90;;;;;;4954207;28;20023;-75
2023/03/14 08:42:45;;;;;;;9.30;1.25;;;20.50;38.80;;;;;;4940017;28;20035;-76
2023/03/14 08:45:13;;;;;;;4.25;1.58;;;20.80;39.60;;;;;;4954022;28;20109;-76
2023/03/14 08:47:39;;;;;;;3.92;0.98;;;21.10;38.30;;;;;;4959426;28;20039;-75
2023/03/14 08:50:06;;;;;;;3.42;1.10;;;20.80;37.80;;;;;;4958314;28;20550;-75
2023/03/14 08:52:32;;;;;;;5.07;1.42;;;20.80;38.00;;;;;;4945150;28;20081;-76
2023/03/14 08:54:58;;;;;;;7.90;1.50;;;21.00;38.40;;;;;;4957514;28;20075;-75
2023/03/14 08:57:27;;;;;;;7.20;1.10;;;21.20;37.70;;;;;;4960782;28;20031;-76
2023/03/14 08:59:55;;;;;;;4.13;1.30;;;21.20;38.90;;;;;;4947487;28;20031;-75
2023/03/14 09:02:21;;;;;;;6.13;1.35;;;21.70;37.60;;;;;;4960096;28;20062;-75
2023/03/14 09:04:46;;;;;;;4.50;0.93;;;21.80;37.00;;;;;;4958860;28;20066;-76
2023/03/14 09:07:12;;;;;;;6.03;1.70;;;22.30;36.30;;;;;;4952039;28;20066;-76
2023/03/14 09:09:38;;;;;;;5.60;1.45;;;22.70;35.70;;;;;;4967168;28;20034;-76
2023/03/14 09:12:04;;;;;;;4.22;0.93;;;22.90;35.40;;;;;;4943400;28;20031;-76
2023/03/14 09:14:30;;;;;;;5.85;1.10;;;23.00;35.90;;;;;;4945977;28;20027;-76
2023/03/14 09:16:56;;;;;;;3.80;1.17;;;22.30;34.80;;;;;;4957440;28;20465;-76
2023/03/14 09:19:22;;;;;;;2.88;1.40;;;21.90;35.80;;;;;;4968298;28;20032;-76
2023/03/14 09:21:48;;;;;;;7.18;1.48;;;21.70;36.30;;;;;;4940181;28;20039;-75
2023/03/14 09:24:14;;;;;;;7.22;1.35;;;22.00;36.20;;;;;;4960643;28;20371;-76
2023/03/14 09:26:39;;;;;;;9.38;1.40;;;22.30;35.70;;;;;;4948316;28;20052;-76
2023/03/14 09:29:05;;;;;;;3.72;1.48;;;22.60;35.30;;;;;;4970627;28;20110;-76
2023/03/14 09:31:31;;;;;;;5.55;1.40;;;22.80;35.20;;;;;;4956980;28;20054;-76
2023/03/14 09:33:56;;;;;;;3.67;1.58;;;23.00;35.00;;;;;;4964657;28;20103;-76
2023/03/14 09:36:22;;;;;;;4.45;1.17;;;23.30;34.20;;;;;;4975485;28;20033;-76
2023/03/14 09:38:48;;;;;;;6.53;1.40;;;23.40;33.20;;;;;;4970190;28;20106;-76
2023/03/14 09:41:36;;;;;;;4.97;1.48;;;23.40;32.90;;;;;;4956647;28;20142;-76
2023/03/14 09:44:13;;;;;;;4.63;1.52;;;24.20;33.50;;;;;;4959801;28;20031;-74
2023/03/14 09:46:40;;;;;;;4.22;1.35;;;23.50;33.20;;;;;;4956299;28;20114;-76
2023/03/14 09:49:20;;;;;;;8.40;1.63;;;23.20;33.40;;;;;;4967261;28;20114;-76
2023/03/14 09:51:48;;;;;;;7.82;1.00;;;23.00;34.50;;;;;;4939429;28;20066;-76
2023/03/14 09:54:35;;;;;;;9.18;1.40;;;22.80;34.00;;;;;;4942034;28;20027;-76
2023/03/14 09:57:03;;;;;;;3.75;1.50;;;21.80;35.40;;;;;;4956167;28;20035;-76
2023/03/14 09:59:29;;;;;;;6.63;2.10;;;21.60;35.20;;;;;;4965760;28;20059;-76
2023/03/14 10:02:00;;;;;;;6.30;1.33;;;21.70;35.30;;;;;;4938876;28;20035;-76
2023/03/14 10:04:28;;;;;;;5.03;0.80;;;21.50;35.50;;;;;;4951422;28;20414;-76
2023/03/14 10:06:53;;;;;;;4.60;0.95;;;21.70;35.10;;;;;;4938791;28;20059;-76
2023/03/14 10:09:25;;;;;;;3.80;1.25;;;21.30;36.10;;;;;;4967240;28;20065;-75
2023/03/14 10:12:01;;;;;;;4.93;1.13;;;20.20;37.80;;;;;;4948573;28;20026;-75
2023/03/14 10:14:36;;;;;;;5.05;0.88;;;19.50;38.90;;;;;;4958900;28;20093;-76
2023/03/14 10:17:08;;;;;;;6.70;0.90;;;18.80;40.90;;;;;;4938656;28;20122;-76
2023/03/14 10:19:35;;;;;;;6.00;1.50;;;18.70;41.30;;;;;;4967191;28;20070;-75
2023/03/14 10:22:02;;;;;;;5.30;0.95;;;18.80;42.10;;;;;;4954797;28;20041;-75
2023/03/14 10:24:31;;;;;;;5.32;1.02;;;18.50;42.00;;;;;;4959058;28;20706;-75
2023/03/14 10:27:05;;;;;;;6.05;0.93;;;18.30;42.00;;;;;;4970499;28;20027;-76
2023/03/14 10:29:32;;;;;;;7.35;1.13;;;18.10;42.70;;;;;;4967233;28;20065;-75
2023/03/14 10:32:07;;;;;;;4.78;1.00;;;18.00;41.10;;;;;;4956047;28;20047;-75
2023/03/14 10:34:35;;;;;;;5.68;1.33;;;17.70;42.60;;;;;;4957253;28;20038;-76
2023/03/14 10:37:25;;;;;;;10.25;1.67;;;17.30;41.80;;;;;;4959413;28;20599;-75
2023/03/14 10:40:05;;;;;;;4.40;1.10;;;16.90;43.20;;;;;;4949974;28;20050;-76
2023/03/14 10:42:34;;;;;;;7.80;1.08;;;17.10;43.90;;;;;;4955814;28;20038;-76
2023/03/14 10:45:07;;;;;;;5.53;0.87;;;17.00;44.50;;;;;;4941298;28;20046;-75
2023/03/14 10:47:33;;;;;;;3.80;0.80;;;16.80;44.00;;;;;;4938061;28;20458;-75
2023/03/14 10:50:27;;;;;;;6.10;1.30;;;16.80;44.30;;;;;;4948782;28;20035;-75
2023/03/14 10:52:54;;;;;;;7.82;1.00;;;16.80;45.40;;;;;;4934050;28;20070;-76
2023/03/14 10:55:20;;;;;;;5.57;1.48;;;16.80;44.90;;;;;;4957135;28;20020;-75
2023/03/14 10:57:45;;;;;;;5.68;1.15;;;16.60;44.60;;;;;;4948263;28;20062;-76
2023/03/14 11:00:19;;;;;;;4.25;0.95;;;16.50;44.90;;;;;;4947633;28;20660;-75
2023/03/14 11:03:14;;;;;;;8.35;1.67;;;16.50;45.30;;;;;;4937861;28;20035;-76
2023/03/14 11:05:43;;;;;;;6.90;1.70;;;16.40;44.90;;;;;;4972077;28;20081;-75
2023/03/14 11:08:20;;;;;;;3.65;1.05;;;16.60;45.90;;;;;;4969115;28;20038;-75
2023/03/14 11:10:52;;;;;;;7.85;1.20;;;16.80;45.90;;;;;;4970253;28;20019;-75
2023/03/14 11:13:25;;;;;;;7.63;1.50;;;16.80;45.50;;;;;;4960653;28;20023;-76
2023/03/14 11:15:59;;;;;;;5.60;0.95;;;16.80;45.50;;;;;;4954849;28;20019;-75
2023/03/14 11:18:59;;;;;;;6.18;0.98;;;16.70;44.40;;;;;;4942936;28;20066;-76
2023/03/14 11:21:28;;;;;;;6.65;2.08;;;16.80;45.00;;;;;;4937470;28;20031;-76
2023/03/14 11:24:31;;;;;;;5.88;1.27;;;16.70;45.00;;;;;;4943511;28;20126;-76
2023/03/14 11:27:06;;;;;;;6.93;1.52;;;16.70;44.00;;;;;;4958428;28;20034;-75
2023/03/14 11:30:01;;;;;;;5.22;1.13;;;16.60;44.20;;;;;;4955989;28;20039;-75
2023/03/14 11:32:53;;;;;;;6.05;1.45;;;16.30;44.60;;;;;;4954871;28;20051;-75
2023/03/14 11:35:38;;;;;;;8.38;1.35;;;16.30;44.30;;;;;;4957692;28;20494;-75
2023/03/14 11:38:09;;;;;;;6.20;1.15;;;16.30;45.20;;;;;;4954830;28;20034;-75
2023/03/14 11:40:38;;;;;;;3.75;0.90;;;16.10;43.80;;;;;;4943301;28;20573;-75
2023/03/14 11:43:32;;;;;;;2.97;1.20;;;16.20;43.80;;;;;;4954510;28;20035;-75
2023/03/14 11:46:07;;;;;;;7.28;1.10;;;16.10;44.20;;;;;;4957074;28;20050;-75
2023/03/14 11:48:45;;;;;;;13.75;1.75;;;15.80;43.60;;;;;;4968401;28;20030;-75
2023/03/14 11:51:23;;;;;;;4.93;1.30;;;15.60;43.60;;;;;;4958844;28;20039;-75
2023/03/14 11:54:07;;;;;;;6.57;1.00;;;15.60;44.30;;;;;;4957295;28;20031;-75
2023/03/14 11:56:59;;;;;;;6.60;1.30;;;15.80;45.50;;;;;;4936943;28;20046;-76
2023/03/14 11:59:31;;;;;;;4.70;0.85;;;15.90;44.50;;;;;;4956110;28;20150;-76
2023/03/14 12:02:15;;;;;;;6.55;1.45;;;15.80;44.50;;;;;;4956041;28;20031;-75
2023/03/14 12:04:41;;;;;;;6.47;0.88;;;15.90;44.10;;;;;;4955906;28;20035;-75
2023/03/14 12:07:32;;;;;;;3.63;1.05;;;15.80;43.40;;;;;;4936932;28;20031;-75
2023/03/14 12:09:58;;;;;;;5.63;1.25;;;15.60;42.40;;;;;;4967675;28;20032;-75
2023/03/14 12:12:27;;;;;;;5.68;1.45;;;15.50;42.60;;;;;;4967587;28;20079;-76
2023/03/14 12:15:04;;;;;;;5.73;1.23;;;15.40;42.30;;;;;;4954988;28;20020;-76
2023/03/14 12:17:43;;;;;;;4.57;0.82;;;15.50;43.40;;;;;;4954243;28;20634;-75
2023/03/14 12:20:14;;;;;;;9.68;1.40;;;15.70;43.10;;;;;;4958361;28;20467;-75
2023/03/14 12:23:03;;;;;;;7.15;1.30;;;15.90;42.80;;;;;;4956545;28;20853;-75
2023/03/14 12:25:32;;;;;;;2.63;1.13;;;15.90;41.50;;;;;;4960988;28;20414;-75
2023/03/14 12:28:10;;;;;;;2.88;0.75;;;15.80;40.70;;;;;;4959298;28;20484;-75
2023/03/14 12:30:41;;;;;;;10.10;1.20;;;15.80;41.20;;;;;;4961775;28;20147;-75
2023/03/14 12:33:09;;;;;;;5.13;0.88;;;15.90;42.70;;;;;;4942376;28;20051;-75
2023/03/14 12:35:45;;;;;;;8.18;1.25;;;16.00;41.90;;;;;;4961109;28;20115;-76
2023/03/14 12:38:44;;;;;;;5.05;1.10;;;16.20;40.80;;;;;;4941125;28;20477;-75
2023/03/14 12:41:13;;;;;;;6.78;1.17;;;16.50;41.30;;;;;;4958106;28;20039;-75
2023/03/14 12:43:39;;;;;;;3.22;0.88;;;16.60;40.10;;;;;;4942001;28;20035;-75
2023/03/14 12:46:17;;;;;;;6.28;1.60;;;16.60;39.20;;;;;;4958948;28;20042;-76
2023/03/14 12:49:04;;;;;;;8.98;1.10;;;16.40;39.80;;;;;;4946944;28;20580;-75
2023/03/14 12:51:37;;;;;;;4.60;1.05;;;16.10;39.50;;;;;;4963269;28;20156;-76
2023/03/14 12:54:35;;;;;;;3.92;1.30;;;15.80;40.90;;;;;;4958085;28;20564;-75
2023/03/14 12:57:10;;;;;;;2.78;0.95;;;15.50;41.30;;;;;;4964822;28;20502;-75
2023/03/14 12:59:38;;;;;;;6.15;1.50;;;15.50;42.50;;;;;;4970492;28;20033;-76
2023/03/14 13:02:06;;;;;;;3.30;1.17;;;15.60;43.00;;;;;;4955613;28;20025;-75
2023/03/14 13:04:48;;;;;;;5.28;1.20;;;15.70;42.00;;;;;;4949341;28;20039;-76
2023/03/14 13:07:55;;;;;;;6.95;0.98;;;16.00;41.90;;;;;;4960232;28;20023;-76
2023/03/14 13:10:26;;;;;;;7.95;1.00;;;16.20;42.00;;;;;;4860037;29;20079;-75
2023/03/14 13:13:25;;;;;;;7.40;0.98;;;16.30;40.30;;;;;;4862631;29;20054;-74
2023/03/14 13:15:58;;;;;;;3.22;1.35;;;16.20;40.50;;;;;;4950927;28;20065;-74
2023/03/14 13:18:38;;;;;;;2.78;0.80;;;16.00;44.10;;;;;;4957539;28;20039;-74
2023/03/14 13:21:03;;;;;;;;;;;15.70;45.40;;;;;;4959982;28;20035;-74
2023/03/14 13:23:32;;;;;;;5.40;1.55;;;15.40;45.90;;;;;;4963895;28;19910;-74
2023/03/14 13:26:00;;;;;;;12.27;1.77;;;15.30;46.00;;;;;;4961813;28;20882;-74
2023/03/14 13:28:27;;;;;;;6.68;1.13;;;15.30;45.00;;;;;;4961221;28;20034;-74
2023/03/14 13:31:01;;;;;;;8.77;1.70;;;15.20;45.90;;;;;;4966132;28;20053;-74
2023/03/14 13:33:28;;;;;;;7.65;1.45;;;15.30;47.40;;;;;;4939832;28;20404;-76
2023/03/14 13:36:06;;;;;;;8.00;1.48;;;14.80;49.20;;;;;;4960384;28;20094;-74
2023/03/14 13:38:34;;;;;;;6.50;2.00;;;14.70;51.10;;;;;;4956975;28;20027;-74
2023/03/14 13:41:04;;;;;;;9.38;1.70;;;14.90;52.40;;;;;;4966272;28;20099;-74
2023/03/14 13:43:33;;;;;;;5.07;1.17;;;15.00;53.00;;;;;;4955497;28;20041;-74
2023/03/14 13:46:07;;;;;;;16.23;2.33;;;15.00;52.80;;;;;;4959035;28;20039;-74
2023/03/14 13:48:39;;;;;;;11.23;1.75;;;15.00;52.90;;;;;;4956452;28;20038;-73
2023/03/14 13:51:06;;;;;;;8.63;1.15;;;15.00;51.50;;;;;;4949604;28;20042;-73
2023/03/14 13:53:42;;;;;;;7.93;1.85;;;15.00;50.80;;;;;;4962879;28;20474;-74
2023/03/14 13:56:11;;;;;;;7.25;1.85;;;15.10;50.60;;;;;;4957879;28;20035;-74
2023/03/14 13:58:38;;;;;;;4.77;1.23;;;15.20;50.40;;;;;;4939376;28;20560;-74
2023/03/14 14:01:26;;;;;;;9.27;1.80;;;15.20;50.30;;;;;;4949364;28;20039;-74
2023/03/14 14:03:55;;;;;;;8.27;1.30;;;14.90;49.10;;;;;;4960236;28;20145;-74
2023/03/14 14:06:32;;;;;;;7.25;1.20;;;14.70;48.80;;;;;;4959306;28;20465;-74
2023/03/14 14:09:15;;;;;;;8.90;1.45;;;14.40;48.90;;;;;;4956389;28;20046;-74
2023/03/14 14:11:46;;;;;;;7.18;1.38;;;14.40;49.40;;;;;;4944835;28;20114;-74
2023/03/14 14:14:17;;;;;;;4.00;1.15;;;14.50;49.90;;;;;;4956950;28;20035;-74
2023/03/14 14:16:46;;;;;;;7.00;1.10;;;14.80;50.10;;;;;;4954851;28;20043;-74
2023/03/14 14:19:14;;;;;;;5.93;1.30;;;14.80;48.20;;;;;;4956712;28;20032;-74
2023/03/14 14:21:40;;;;;;;5.50;1.73;;;14.80;48.00;;;;;;4965998;28;20031;-74
2023/03/14 14:24:07;;;;;;;6.07;1.35;;;14.90;47.70;;;;;;4938700;28;20031;-74
2023/03/14 14:26:33;;;;;;;8.80;1.48;;;15.00;47.80;;;;;;4960328;28;20494;-74
2023/03/14 14:29:05;;;;;;;3.00;0.82;;;14.90;45.90;;;;;;4956436;28;20055;-74
2023/03/14 14:31:30;;;;;;;8.32;1.02;;;14.70;45.90;;;;;;4966507;28;20122;-74
2023/03/14 14:34:03;;;;;;;6.13;1.50;;;14.60;46.90;;;;;;4960667;28;20054;-74
2023/03/14 14:36:38;;;;;;;7.38;1.00;;;14.60;47.40;;;;;;4959731;28;20068;-74
2023/03/14 14:39:19;;;;;;;6.53;1.10;;;14.70;46.90;;;;;;4956030;28;20023;-74
2023/03/14 14:41:48;;;;;;;8.30;1.02;;;14.70;47.10;;;;;;4955734;28;20138;-74
2023/03/14 14:44:18;;;;;;;5.20;0.85;;;14.80;46.60;;;;;;4955634;28;20410;-74
2023/03/14 14:46:44;;;;;;;3.05;1.00;;;14.70;46.60;;;;;;4966397;28;20026;-74
2023/03/14 14:49:17;;;;;;;4.93;0.80;;;14.70;46.50;;;;;;4943610;28;20103;-74
2023/03/14 14:51:47;;;;;;;3.25;0.90;;;14.80;46.40;;;;;;4958599;28;20042;-74
2023/03/14 14:54:19;;;;;;;5.82;0.93;;;14.60;45.40;;;;;;4938243;28;20891;-74
2023/03/14 14:56:53;;;;;;;2.63;0.70;;;14.50;44.50;;;;;;4972438;28;20509;-74
2023/03/14 14:59:42;;;;;;;3.50;0.82;;;14.30;42.90;;;;;;4955643;28;20027;-74
2023/03/14 15:02:25;;;;;;;9.13;1.38;;;14.20;43.20;;;;;;4946025;28;20043;-74
2023/03/14 15:04:50;;;;;;;3.25;0.80;;;14.20;43.70;;;;;;4956738;28;20417;-74
2023/03/14 15:07:16;;;;;;;5.10;0.95;;;14.20;43.40;;;;;;4954873;28;20042;-74
2023/03/14 15:09:42;;;;;;;3.80;0.95;;;14.00;43.50;;;;;;4956718;28;20498;-74
2023/03/14 15:12:08;;;;;;;2.83;0.98;;;14.00;44.00;;;;;;4963315;28;20490;-74
2023/03/14 15:14:34;;;;;;;3.72;1.70;;;14.00;44.50;;;;;;4948932;28;20027;-74
2023/03/14 15:16:59;;;;;;;3.08;0.95;;;13.90;44.10;;;;;;4956651;28;20067;-74
2023/03/14 15:19:26;;;;;;;2.78;0.80;;;14.00;44.60;;;;;;4954987;28;20031;-74
2023/03/14 15:21:53;;;;;;;3.15;0.77;;;13.80;44.30;;;;;;4965558;28;20986;-74
2023/03/14 15:24:19;;;;;;;3.72;0.85;;;13.90;44.70;;;;;;4955065;28;20769;-74
2023/03/14 15:26:44;;;;;;;6.53;0.93;;;13.90;45.00;;;;;;4968799;28;20138;-74
2023/03/14 15:29:12;;;;;;;1.98;0.73;;;13.90;45.30;;;;;;4957199;28;20027;-74
2023/03/14 15:31:38;;;;;;;4.88;0.95;;;14.10;45.80;;;;;;4970439;28;20130;-74
2023/03/14 15:34:04;;;;;;;4.85;0.88;;;14.00;44.80;;;;;;4958565;28;20026;-74
2023/03/14 15:36:33;;;;;;;3.83;0.80;;;14.00;45.20;;;;;;4961677;28;20070;-74
2023/03/14 15:38:59;;;;;;;6.50;1.58;;;14.00;44.30;;;;;;4954893;28;20105;-74
2023/03/14 15:41:26;;;;;;;4.80;1.05;;;14.00;45.00;;;;;;4965199;28;20031;-74
2023/03/14 15:43:52;;;;;;;4.60;0.77;;;14.00;45.00;;;;;;4946450;28;20336;-74
2023/03/14 15:46:18;;;;;;;1.67;0.80;;;13.90;45.00;;;;;;4963048;28;20071;-74
2023/03/14 15:48:48;;;;;;;4.13;1.67;;;13.90;45.50;;;;;;4954528;28;20035;-74
2023/03/14 15:51:14;;;;;;;2.97;0.93;;;13.80;46.00;;;;;;4964593;28;20035;-74
2023/03/14 15:53:40;;;;;;;4.18;1.15;;;13.80;46.00;;;;;;4937278;28;20103;-74
2023/03/14 15:56:10;;;;;;;3.53;1.00;;;13.70;45.80;;;;;;4956377;28;20031;-74
2023/03/14 15:58:36;;;;;;;3.17;1.05;;;13.70;46.40;;;;;;4954042;28;20039;-74
2023/03/14 16:01:02;;;;;;;2.60;1.13;;;13.70;46.30;;;;;;4962894;28;20468;-74
2023/03/14 16:03:29;;;;;;;4.93;1.58;;;13.70;46.00;;;;;;4955537;28;20042;-74
2023/03/14 16:05:55;;;;;;;3.90;0.80;;;13.70;45.80;;;;;;4962456;28;20122;-74
2023/03/14 16:08:22;;;;;;;2.63;0.88;;;13.70;45.60;;;;;;4953136;28;20031;-74
2023/03/14 16:10:48;;;;;;;2.35;0.80;;;13.70;45.60;;;;;;4963676;28;20019;-74
2023/03/14 16:13:15;;;;;;;4.95;1.02;;;13.70;45.60;;;;;;4957018;28;20035;-73
2023/03/14 16:15:40;;;;;;;2.78;0.88;;;13.70;45.10;;;;;;4956342;28;20026;-74
2023/03/14 16:18:06;;;;;;;3.22;0.95;;;13.80;45.50;;;;;;4937012;28;20031;-74
2023/03/14 16:20:32;;;;;;;6.88;0.95;;;13.70;46.10;;;;;;4954393;28;20051;-74
2023/03/14 16:22:57;;;;;;;2.33;0.80;;;13.70;46.60;;;;;;4954772;28;20063;-74
2023/03/14 16:25:23;;;;;;;5.50;1.10;;;13.60;47.00;;;;;;4955407;28;20038;-73
2023/03/14 16:27:49;;;;;;;2.60;0.90;;;13.70;47.90;;;;;;4968973;28;20488;-74
2023/03/14 16:30:15;;;;;;;5.13;1.05;;;13.60;48.20;;;;;;4969447;28;20033;-74
2023/03/14 16:32:40;;;;;;;7.70;1.20;;;13.60;48.90;;;;;;4967674;28;20408;-74
2023/03/14 16:35:06;;;;;;;5.10;1.10;;;13.50;49.00;;;;;;4971930;28;20027;-74
2023/03/14 16:37:32;;;;;;;6.65;1.17;;;13.40;49.30;;;;;;4949628;28;20035;-74
2023/03/14 16:39:58;;;;;;;6.70;1.52;;;13.30;49.30;;;;;;4970192;28;20075;-73
2023/03/14 16:42:24;;;;;;;1.92;0.80;;;13.30;49.40;;;;;;4951592;28;20034;-73
2023/03/14 16:44:49;;;;;;;2.80;0.70;;;13.30;48.20;;;;;;4954559;28;20085;-74
2023/03/14 16:47:15;;;;;;;5.57;1.20;;;13.20;48.20;;;;;;4971828;28;20118;-74
2023/03/14 16:49:41;;;;;;;4.57;0.85;;;13.20;48.20;;;;;;4951900;28;20085;-74
2023/03/14 16:52:07;;;;;;;3.88;0.90;;;13.10;48.10;;;;;;4973423;28;20504;-74
2023/03/14 16:54:34;;;;;;;3.38;0.90;;;13.20;48.20;;;;;;4954968;28;20026;-74
2023/03/14 16:57:00;;;;;;;5.43;1.13;;;13.20;48.00;;;;;;4959166;28;20402;-73
2023/03/14 16:59:27;;;;;;;8.05;1.50;;;13.10;48.40;;;;;;4965279;28;20039;-77
2023/03/14 17:01:56;;;;;;;5.10;1.63;;;13.10;48.90;;;;;;4973832;28;20051;-75
2023/03/14 17:04:22;;;;;;;3.95;1.42;;;13.10;48.40;;;;;;4971742;28;20401;-75
2023/03/14 17:06:48;;;;;;;1.50;0.70;;;13.10;48.20;;;;;;4959056;28;20478;-75
2023/03/14 17:09:14;;;;;;;2.75;1.10;;;13.10;48.50;;;;;;4960869;28;20097;-75
2023/03/14 17:11:39;;;;;;;6.85;0.93;;;13.00;49.60;;;;;;4974353;28;20474;-75
2023/03/14 17:14:05;;;;;;;7.90;1.65;;;13.00;50.30;;;;;;4974194;28;20031;-75
2023/03/14 17:16:31;;;;;;;10.40;1.77;;;12.90;51.10;;;;;;4973075;28;20031;-75
2023/03/14 17:18:57;;;;;;;9.95;1.00;;;12.80;51.60;;;;;;4977367;28;20035;-75
2023/03/14 17:21:23;;;;;;;5.07;1.50;;;12.80;52.00;;;;;;4978102;28;20042;-75
2023/03/14 17:23:49;;;;;;;6.03;1.30;;;12.70;51.90;;;;;;4971406;28;20549;-75
2023/03/14 17:26:16;;;;;;;5.82;1.77;;;12.60;52.20;;;;;;4973708;28;20034;-75
2023/03/14 17:28:43;;;;;;;5.80;1.13;;;12.50;52.50;;;;;;4976863;28;20027;-75
2023/03/14 17:31:15;;;;;;;1.73;1.40;;;12.40;52.80;;;;;;4977570;28;20558;-75
2023/03/14 17:33:42;;;;;;;7.35;1.60;;;12.30;53.20;;;;;;4964127;28;20081;-75
2023/03/14 17:36:08;;;;;;;2.50;1.20;;;12.30;53.60;;;;;;4973177;28;20031;-75
2023/03/14 17:38:35;;;;;;;2.72;1.10;;;12.30;53.80;;;;;;4975014;28;20158;-75
2023/03/14 17:41:01;;;;;;;5.13;1.70;;;12.30;53.70;;;;;;4975028;28;20031;-75
2023/03/14 17:43:26;;;;;;;5.85;1.58;;;12.30;53.90;;;;;;4978444;28;20035;-75
2023/03/14 17:46:05;;;;;;;5.90;1.50;;;12.30;54.10;;;;;;4971742;28;20067;-75
2023/03/14 17:48:30;;;;;;;4.22;1.40;;;12.30;54.20;;;;;;4939562;29;20023;-75
2023/03/14 17:50:56;;;;;;;3.55;1.10;;;12.20;54.50;;;;;;4970565;28;20489;-75
2023/03/14 17:53:22;;;;;;;6.82;1.67;;;12.20;54.40;;;;;;4978567;28;20031;-75
2023/03/14 17:55:48;;;;;;;5.75;1.30;;;12.10;54.40;;;;;;4978106;28;20022;-75
2023/03/14 17:58:14;;;;;;;7.20;1.98;;;12.10;54.50;;;;;;4978290;28;20082;-75
2023/03/14 18:00:40;;;;;;;4.15;2.05;;;12.00;54.40;;;;;;4960166;28;20426;-82
2023/03/14 18:03:06;;;;;;;6.55;1.38;;;11.90;54.30;;;;;;4978521;28;20122;-75
2023/03/14 18:05:32;;;;;;;6.43;1.90;;;11.90;54.50;;;;;;4978191;28;20054;-75
2023/03/14 18:07:57;;;;;;;4.18;1.52;;;11.90;54.60;;;;;;4978215;28;20027;-75
2023/03/14 18:10:23;;;;;;;7.40;1.50;;;11.80;54.70;;;;;;4971661;28;20489;-75
2023/03/14 18:12:49;;;;;;;2.35;1.00;;;11.70;54.90;;;;;;4958013;28;20068;-74
2023/03/14 18:15:15;;;;;;;4.80;1.80;;;11.60;55.30;;;;;;4959830;28;20031;-75
2023/03/14 18:17:41;;;;;;;7.80;1.40;;;11.60;55.20;;;;;;4973720;28;20405;-75
2023/03/14 18:20:11;;;;;;;3.38;1.20;;;11.50;55.40;;;;;;4976367;28;20412;-74
2023/03/14 18:22:37;;;;;;;3.63;1.30;;;11.50;55.40;;;;;;4973939;28;20157;-74
2023/03/14 18:25:04;;;;;;;5.82;1.10;;;11.40;55.80;;;;;;4976695;28;20041;-77
2023/03/14 18:27:30;;;;;;;4.82;1.40;;;11.30;55.90;;;;;;4974619;28;20019;-75